Time;durP1;ratioP1;P1;durP2;ratioP2;P2;SDS_P1;SDS_P2;PMS_P1;PMS_P2;Temp;Humidity;BMP_temperature;BMP_pressure;BME280_temperature;BME280_humidity;BME280_pressure;Samples;Min_cycle;Max_cycle;Signal;HPM_P1;HPM_P2
2024/01/14 00:00:37;;;;;;;36.80;15.57;;;;;;;-1.97;71.35;99832.97;4957393;28;20235;-82
2024/01/14 00:03:04;;;;;;;47.13;19.42;;;;;;;-1.97;71.24;99827.84;4956408;28;20343;-83
2024/01/14 00:05:29;;;;;;;25.75;13.30;;;;;;;-1.99;70.96;99830.44;4959879;28;20322;-82
2024/01/14 00:07:56;;;;;;;41.08;19.63;;;;;;;-2.01;71.28;99822.72;4959816;28;21314;-80
2024/01/14 00:10:22;;;;;;;35.60;15.18;;;;;;;-2.03;71.13;99819.28;4959394;28;20656;-81
2024/01/14 00:12:47;;;;;;;31.30;13.13;;;;;;;-2.07;71.37;99815.06;4958919;28;20696;-80
2024/01/14 00:15:17;;;;;;;38.87;15.03;;;;;;;-2.10;71.13;99806.53;4959663;28;20475;-80
2024/01/14 00:17:43;;;;;;;39.95;15.95;;;;;;;-2.14;71.40;99812.53;4960661;28;20770;-83
2024/01/14 00:20:08;;;;;;;39.30;15.73;;;;;;;-2.15;71.31;99811.69;4961438;28;20783;-80
2024/01/14 00:22:34;;;;;;;40.07;17.77;;;;;;;-2.18;71.72;99801.44;4962313;28;20262;-84
2024/01/14 00:24:59;;;;;;;27.33;14.43;;;;;;;-2.19;71.54;99801.44;4965771;28;20489;-83
2024/01/14 00:27:25;;;;;;;35.30;18.40;;;;;;;-2.18;71.53;99803.16;4967075;28;20244;-82
2024/01/14 00:29:51;;;;;;;31.10;16.37;;;;;;;-2.16;71.49;99797.13;4964524;28;20208;-81
2024/01/14 00:32:16;;;;;;;38.53;16.80;;;;;;;-2.15;71.55;99788.53;4963333;28;20227;-84
2024/01/14 00:34:42;;;;;;;36.23;14.97;;;;;;;-2.11;71.37;99791.94;4966606;28;20487;-83
2024/01/14 00:37:07;;;;;;;33.73;16.10;;;;;;;-2.08;71.20;99787.63;4961039;28;20219;-83
2024/01/14 00:39:37;;;;;;;38.73;16.60;;;;;;;-2.04;71.39;99778.16;4959527;28;20223;-80
2024/01/14 00:42:03;;;;;;;37.95;17.23;;;;;;;-2.10;71.14;99770.50;4957354;28;20490;-82
2024/01/14 00:44:29;;;;;;;47.25;18.80;;;;;;;-2.14;71.35;99759.34;4958264;28;20238;-80
2024/01/14 00:46:54;;;;;;;37.00;14.20;;;;;;;-2.15;71.46;99761.97;4958159;28;20212;-82
2024/01/14 00:49:19;;;;;;;32.20;14.63;;;;;;;-2.18;71.40;99755.13;4959755;28;20771;-81
2024/01/14 00:51:46;;;;;;;36.17;14.33;;;;;;;-2.20;71.30;99749.13;4955557;28;20299;-82
2024/01/14 00:54:11;;;;;;;48.97;19.17;;;;;;;-2.21;71.55;99742.28;4958607;28;20603;-80
2024/01/14 00:56:37;;;;;;;43.10;14.17;;;;;;;-2.20;71.57;99743.97;4959237;28;20223;-83
2024/01/14 00:59:02;;;;;;;29.90;14.93;;;;;;;-2.20;71.58;99736.25;4962898;28;20222;-82
2024/01/14 01:01:29;;;;;;;45.17;15.37;;;;;;;-2.22;71.43;99750.84;4963187;28;20266;-80
2024/01/14 01:03:55;;;;;;;36.78;15.77;;;;;;;-2.23;71.46;99746.59;4963874;28;20223;-81
2024/01/14 01:06:20;;;;;;;33.47;15.67;;;;;;;-2.27;71.70;99758.63;4961967;28;20658;-84
2024/01/14 01:08:46;;;;;;;56.70;26.27;;;;;;;-2.28;71.60;99745.78;4959872;28;20575;-80
2024/01/14 01:11:15;;;;;;;44.65;17.10;;;;;;;-2.26;71.84;99744.06;4960411;28;20232;-80
2024/01/14 01:13:40;;;;;;;34.70;14.40;;;;;;;-2.27;71.82;99747.47;4960246;28;20929;-81
2024/01/14 01:16:06;;;;;;;34.97;14.47;;;;;;;-2.32;71.93;99734.66;4964613;28;20298;-82
2024/01/14 01:18:31;;;;;;;28.80;15.73;;;;;;;-2.34;72.07;99740.69;4964397;28;20224;-79
2024/01/14 01:20:57;;;;;;;30.50;14.47;;;;;;;-2.33;72.25;99727.81;4962975;28;21063;-83
2024/01/14 01:23:22;;;;;;;29.53;15.47;;;;;;;-2.32;72.06;99723.50;4964411;28;20719;-82
2024/01/14 01:25:48;;;;;;;40.00;13.50;;;;;;;-2.32;71.83;99731.22;4962709;28;20755;-80
2024/01/14 01:28:13;;;;;;;35.40;15.47;;;;;;;-2.34;71.58;99732.97;4962778;28;20707;-81
2024/01/14 01:30:39;;;;;;;26.00;13.13;;;;;;;-2.36;71.51;99727.84;4959129;28;20239;-83
2024/01/14 01:33:04;;;;;;;34.53;14.60;;;;;;;-2.37;71.69;99733.00;4960262;28;20676;-85
2024/01/14 01:35:29;;;;;;;42.23;16.77;;;;;;;-2.40;71.69;99741.59;4958915;28;20218;-80
2024/01/14 01:37:55;;;;;;;41.63;17.35;;;;;;;-2.40;71.27;99726.16;4961067;28;20766;-80
2024/01/14 01:40:21;;;;;;;43.37;15.77;;;;;;;-2.42;71.72;99725.31;4964091;28;20227;-83
2024/01/14 01:42:46;;;;;;;35.75;14.73;;;;;;;-2.44;71.68;99729.63;4962323;28;20230;-80
2024/01/14 01:45:12;;;;;;;29.40;14.27;;;;;;;-2.46;71.56;99726.19;4962567;28;20228;-80
2024/01/14 01:47:39;;;;;;;28.60;15.40;;;;;;;-2.47;71.95;99721.94;4964156;28;20779;-84
2024/01/14 01:50:05;;;;;;;39.22;16.60;;;;;;;-2.47;71.52;99727.94;4964558;28;20231;-80
2024/01/14 01:52:30;;;;;;;44.50;17.57;;;;;;;-2.48;71.87;99717.66;4965321;28;20233;-81
2024/01/14 01:54:56;;;;;;;36.27;16.83;;;;;;;-2.51;71.83;99712.53;4965464;28;20497;-84
2024/01/14 01:57:22;;;;;;;43.72;17.63;;;;;;;-2.52;71.66;99721.97;4962014;28;20222;-82
2024/01/14 01:59:48;;;;;;;33.10;14.30;;;;;;;-2.55;71.78;99714.28;4960995;28;20208;-80
2024/01/14 02:02:14;;;;;;;36.87;16.07;;;;;;;-2.56;71.74;99709.19;4962274;28;20680;-80
2024/01/14 02:04:39;;;;;;;30.23;15.35;;;;;;;-2.57;71.74;99697.16;4959661;28;20692;-82
2024/01/14 02:07:06;;;;;;;25.83;14.70;;;;;;;-2.56;71.73;99698.88;4960115;28;20243;-79
2024/01/14 02:09:32;;;;;;;51.75;25.65;;;;;;;-2.53;71.94;99706.56;4956781;28;20516;-82
2024/01/14 02:11:59;;;;;;;40.80;17.30;;;;;;;-2.52;72.02;99697.97;4961179;28;20884;-82
2024/01/14 02:14:25;;;;;;;25.63;13.70;;;;;;;-2.54;72.21;99703.16;4960611;28;20236;-80
2024/01/14 02:16:52;;;;;;;42.73;18.80;;;;;;;-2.54;72.34;99695.44;4960646;28;20230;-82
2024/01/14 02:19:17;;;;;;;39.85;18.50;;;;;;;-2.53;71.94;99691.13;4965490;28;20477;-82
2024/01/14 02:21:46;;;;;;;31.93;15.90;;;;;;;-2.55;71.92;99683.44;4961766;28;20235;-80
2024/01/14 02:24:23;;;;;;;34.78;15.40;;;;;;;-2.55;71.92;99678.28;4963744;28;20215;-83
2024/01/14 02:26:52;;;;;;;43.50;16.38;;;;;;;-2.55;71.73;99680.84;4963075;28;20227;-80
2024/01/14 02:29:19;;;;;;;36.60;14.98;;;;;;;-2.53;71.73;99670.56;4960895;28;20226;-83
2024/01/14 02:31:44;;;;;;;32.40;14.70;;;;;;;-2.51;71.96;99658.53;4960264;28;20228;-82
2024/01/14 02:34:10;;;;;;;32.60;14.53;;;;;;;-2.49;71.81;99657.66;4960131;28;20735;-81
2024/01/14 02:36:36;;;;;;;35.40;15.98;;;;;;;-2.48;71.66;99667.09;4961481;28;20553;-83
2024/01/14 02:39:01;;;;;;;50.50;23.80;;;;;;;-2.45;71.57;99659.34;4965605;28;21085;-83
2024/01/14 02:41:27;;;;;;;51.10;17.57;;;;;;;-2.45;71.67;99661.06;4965996;28;20994;-80
2024/01/14 02:43:52;;;;;;;26.73;15.40;;;;;;;-2.47;71.76;99663.63;4969600;28;20219;-81
2024/01/14 02:46:17;;;;;;;32.37;15.10;;;;;;;-2.55;71.77;99657.72;4963787;28;20216;-83
2024/01/14 02:48:43;;;;;;;45.03;16.10;;;;;;;-2.61;72.06;99654.38;4955585;28;20288;-82
2024/01/14 02:51:08;;;;;;;42.43;15.90;;;;;;;-2.61;71.85;99650.06;4958765;28;20375;-81
2024/01/14 02:53:34;;;;;;;34.73;16.43;;;;;;;-2.59;71.85;99650.03;4958468;28;20235;-80
2024/01/14 02:55:59;;;;;;;24.30;11.50;;;;;;;-2.59;71.51;99635.47;4970037;28;20224;-83
2024/01/14 02:58:25;;;;;;;32.30;13.70;;;;;;;-2.66;71.41;99641.53;4965541;28;20649;-82
2024/01/14 03:00:50;;;;;;;37.13;16.30;;;;;;;-2.75;71.97;99641.63;4963758;28;20220;-80
2024/01/14 03:03:16;;;;;;;34.73;17.90;;;;;;;-2.76;71.73;99639.91;4963667;28;20330;-83
2024/01/14 03:05:42;;;;;;;31.48;15.52;;;;;;;-2.76;71.90;99640.75;4955777;28;20493;-81
2024/01/14 03:08:08;;;;;;;39.65;21.25;;;;;;;-2.77;71.65;99639.06;4959149;28;21003;-82
2024/01/14 03:10:33;;;;;;;37.30;16.80;;;;;;;-2.79;72.31;99637.38;4955832;28;20230;-80
2024/01/14 03:12:58;;;;;;;37.70;17.37;;;;;;;-2.76;72.13;99632.19;4959294;28;20236;-82
2024/01/14 03:15:24;;;;;;;31.37;15.17;;;;;;;-2.73;71.86;99627.91;4957924;28;20216;-82
2024/01/14 03:17:49;;;;;;;38.40;15.13;;;;;;;-2.71;71.79;99617.59;4957257;28;20248;-83
2024/01/14 03:20:15;;;;;;;26.80;14.97;;;;;;;-2.70;71.92;99615.03;4954561;28;20433;-82
2024/01/14 03:22:41;;;;;;;34.67;17.10;;;;;;;-2.68;71.81;99620.97;4956432;28;20795;-81
2024/01/14 03:25:07;;;;;;;27.07;13.20;;;;;;;-2.64;71.83;99616.66;4958037;28;20282;-84
2024/01/14 03:27:32;;;;;;;30.33;15.37;;;;;;;-2.60;71.33;99615.75;4957626;28;20486;-80
2024/01/14 03:29:57;;;;;;;32.20;11.83;;;;;;;-2.60;71.10;99614.91;4954828;28;21461;-84
2024/01/14 03:32:23;;;;;;;33.70;14.57;;;;;;;-2.68;71.36;99608.13;4956942;28;20227;-81
2024/01/14 03:34:48;;;;;;;29.73;15.13;;;;;;;-2.73;71.34;99604.75;4956906;28;20262;-80
2024/01/14 03:37:13;;;;;;;46.53;18.97;;;;;;;-2.79;71.82;99601.38;4956982;28;20211;-80
2024/01/14 03:39:40;;;;;;;35.33;16.90;;;;;;;-2.83;72.06;99608.28;4959293;28;20342;-83
2024/01/14 03:42:05;;;;;;;34.63;16.50;;;;;;;-2.79;72.21;99609.09;4955824;28;20725;-79
2024/01/14 03:44:31;;;;;;;37.57;15.53;;;;;;;-2.75;72.21;99606.50;4959139;28;20223;-83
2024/01/14 03:46:56;;;;;;;29.17;12.33;;;;;;;-2.69;71.92;99605.56;4957768;28;21227;-80
2024/01/14 03:49:21;;;;;;;33.30;13.47;;;;;;;-2.67;71.57;99609.84;4958398;28;20681;-82
2024/01/14 03:51:47;;;;;;;21.93;11.27;;;;;;;-2.65;71.59;99599.53;4955602;28;20274;-80
2024/01/14 03:54:13;;;;;;;46.70;19.60;;;;;;;-2.69;71.65;99596.13;4958962;28;20247;-81
2024/01/14 03:56:38;;;;;;;36.00;14.83;;;;;;;-2.70;71.88;99597.03;4958810;28;20290;-85
2024/01/14 03:59:03;;;;;;;36.00;14.70;;;;;;;-2.68;71.77;99604.69;4959255;28;20227;-81
2024/01/14 04:01:29;;;;;;;36.77;13.83;;;;;;;-2.65;71.82;99598.69;4957606;28;20234;-80
2024/01/14 04:03:54;;;;;;;20.60;10.83;;;;;;;-2.63;72.19;99595.22;4956782;28;20769;-85
2024/01/14 04:06:20;;;;;;;50.70;16.77;;;;;;;-2.64;71.86;99598.69;4956698;28;20221;-83
2024/01/14 04:08:46;;;;;;;52.72;26.73;;;;;;;-2.61;72.18;99588.34;4958494;28;21139;-83
2024/01/14 04:11:12;;;;;;;33.20;16.30;;;;;;;-2.58;72.02;99587.47;4958050;28;20286;-82
2024/01/14 04:13:37;;;;;;;43.67;17.40;;;;;;;-2.59;72.31;99589.19;4956076;28;20486;-83
2024/01/14 04:16:02;;;;;;;34.83;15.00;;;;;;;-2.63;72.12;99587.50;4958966;28;20604;-82
2024/01/14 04:18:29;;;;;;;33.53;14.57;;;;;;;-2.65;71.93;99585.81;4949177;28;20219;-80
2024/01/14 04:20:55;;;;;;;36.90;13.18;;;;;;;-2.67;72.13;99591.00;4950408;28;20301;-83
2024/01/14 04:23:20;;;;;;;31.13;15.38;;;;;;;-2.71;72.28;99586.75;4950221;28;20231;-83
2024/01/14 04:25:45;;;;;;;32.63;14.53;;;;;;;-2.76;72.28;99585.94;4951572;28;20655;-80
2024/01/14 04:28:11;;;;;;;41.93;16.33;;;;;;;-2.79;72.59;99576.53;4955496;28;20220;-81
2024/01/14 04:30:36;;;;;;;40.47;15.27;;;;;;;-2.75;72.28;99582.50;4955025;28;20838;-83
2024/01/14 04:33:02;;;;;;;32.60;15.37;;;;;;;-2.75;72.36;99577.38;4951051;28;20224;-81
2024/01/14 04:35:27;;;;;;;35.10;11.63;;;;;;;-2.74;71.96;99576.50;4955636;28;20747;-80
2024/01/14 04:37:53;;;;;;;41.55;15.90;;;;;;;-2.76;72.50;99578.22;4958095;28;21141;-80
2024/01/14 04:40:19;;;;;;;42.03;18.10;;;;;;;-2.77;72.26;99581.66;4956761;28;20273;-83
2024/01/14 04:42:44;;;;;;;40.50;15.83;;;;;;;-2.78;72.16;99580.81;4958508;28;21069;-82
2024/01/14 04:45:09;;;;;;;34.63;14.07;;;;;;;-2.84;72.13;99574.88;4956885;28;20371;-80
2024/01/14 04:47:35;;;;;;;40.30;17.00;;;;;;;-2.88;72.40;99578.34;4958198;28;20223;-82
2024/01/14 04:50:01;;;;;;;36.30;15.57;;;;;;;-2.90;72.73;99579.19;4963035;28;20287;-82
2024/01/14 04:52:26;;;;;;;28.17;13.27;;;;;;;-2.86;72.70;99576.59;4964044;28;20660;-82
2024/01/14 04:54:51;;;;;;;12.83;6.83;;;;;;;-2.85;72.32;99578.31;4965476;28;20842;-82
2024/01/14 04:57:17;;;;;;;39.83;14.40;;;;;;;-2.89;72.45;99577.47;4964854;28;20230;-84
2024/01/14 04:59:42;;;;;;;33.83;13.70;;;;;;;-2.93;72.61;99574.09;4965268;28;20228;-83
2024/01/14 05:02:07;;;;;;;29.63;13.97;;;;;;;-2.91;72.92;99569.81;4965652;28;20243;-82
2024/01/14 05:04:33;;;;;;;37.67;16.00;;;;;;;-2.87;72.82;99574.91;4964973;28;20215;-82
2024/01/14 05:06:59;;;;;;;31.73;13.23;;;;;;;-2.82;72.73;99578.28;4967190;28;20481;-85
2024/01/14 05:09:24;;;;;;;53.70;26.52;;;;;;;-2.75;72.71;99575.66;4966235;28;20996;-83
2024/01/14 05:11:50;;;;;;;46.47;18.37;;;;;;;-2.69;72.80;99574.72;4967140;28;20234;-81
2024/01/14 05:14:16;;;;;;;47.70;15.83;;;;;;;-2.68;72.83;99568.69;4966062;28;20227;-82
2024/01/14 05:16:41;;;;;;;48.90;19.42;;;;;;;-2.68;72.38;99569.56;4963198;28;20227;-80
2024/01/14 05:19:07;;;;;;;34.00;19.23;;;;;;;-2.66;72.45;99574.69;4963984;28;20228;-80
2024/01/14 05:24:17;;;;;;;42.28;15.43;;;;;;;-2.62;72.48;99567.78;4932829;28;20538;-82
2024/01/14 05:26:45;;;;;;;31.90;13.82;;;;;;;-2.63;72.19;99566.94;4943039;28;20220;-83
2024/01/14 05:29:11;;;;;;;45.37;14.43;;;;;;;-2.68;72.28;99564.41;4958618;28;20256;-84
2024/01/14 05:31:37;;;;;;;32.00;15.53;;;;;;;-2.70;72.49;99563.59;4956241;28;20287;-83
2024/01/14 05:34:06;;;;;;;31.00;12.82;;;;;;;-2.71;72.32;99567.00;4958659;28;20243;-83
2024/01/14 05:36:32;;;;;;;37.05;12.65;;;;;;;-2.73;72.30;99567.91;4962042;28;20251;-83
2024/01/14 05:38:57;;;;;;;51.47;24.27;;;;;;;-2.74;72.53;99567.06;4956669;28;20526;-84
2024/01/14 05:41:23;;;;;;;53.63;17.80;;;;;;;-2.76;72.52;99562.78;4960778;28;20771;-83
2024/01/14 05:43:51;;;;;;;41.27;18.37;;;;;;;-2.83;72.53;99561.16;4961391;28;20223;-84
2024/01/14 05:46:17;;;;;;;45.40;17.15;;;;;;;-2.88;72.65;99557.78;4956244;28;20220;-84
2024/01/14 05:48:43;;;;;;;28.67;13.50;;;;;;;-2.91;72.99;99556.09;4955802;28;21382;-84
2024/01/14 05:51:09;;;;;;;24.77;11.67;;;;;;;-2.93;72.97;99553.53;4971293;28;20224;-84
2024/01/14 05:53:35;;;;;;;48.38;14.40;;;;;;;-3.01;72.80;99552.75;4957603;28;20962;-83
2024/01/14 05:56:00;;;;;;;44.33;18.03;;;;;;;-3.02;72.79;99556.22;4955646;28;20222;-83
2024/01/14 05:58:25;;;;;;;37.37;14.57;;;;;;;-3.01;73.07;99557.06;4961320;28;20220;-83
2024/01/14 06:00:51;;;;;;;32.67;15.33;;;;;;;-2.97;73.05;99561.28;4954950;28;20255;-83
2024/01/14 06:03:16;;;;;;;36.70;22.77;;;;;;;-3.19;73.42;99555.50;4955551;28;20302;-83
2024/01/14 06:05:42;;;;;;;41.27;17.57;;;;;;;-3.19;73.33;99558.06;4960647;28;20734;-84
2024/01/14 06:08:08;;;;;;;43.75;21.50;;;;;;;-3.26;73.46;99552.13;4958429;28;20476;-83
2024/01/14 06:10:33;;;;;;;33.20;13.60;;;;;;;-3.26;73.65;99556.44;4964883;28;20632;-83
2024/01/14 06:12:59;;;;;;;38.30;17.13;;;;;;;-3.28;73.88;99560.72;4955276;28;20767;-82
2024/01/14 06:15:35;;;;;;;32.33;15.73;;;;;;;-3.30;74.02;99562.44;4962789;28;20227;-83
2024/01/14 06:18:01;;;;;;;35.47;15.35;;;;;;;-3.27;73.95;99562.41;4961829;28;20730;-83
2024/01/14 06:20:26;;;;;;;26.03;17.17;;;;;;;-3.27;73.79;99564.97;4953162;28;20244;-83
2024/01/14 06:22:52;;;;;;;30.17;15.63;;;;;;;-3.23;73.85;99566.66;4947085;28;20240;-83
2024/01/14 06:25:17;;;;;;;47.30;16.73;;;;;;;-3.15;73.74;99575.16;4961233;28;20224;-83
2024/01/14 06:27:45;;;;;;;35.93;19.97;;;;;;;-3.11;73.92;99563.97;4959018;28;20319;-83
2024/01/14 06:30:12;;;;;;;33.47;17.92;;;;;;;-3.09;73.73;99569.97;4961832;28;20236;-83
2024/01/14 06:32:38;;;;;;;42.58;17.25;;;;;;;-3.17;73.58;99556.34;4950837;28;20228;-84
2024/01/14 06:35:08;;;;;;;44.80;14.93;;;;;;;-3.19;73.69;99553.75;4966081;28;20227;-84
2024/01/14 06:37:52;;;;;;;41.80;15.97;;;;;;;-3.25;73.74;99564.09;4967711;28;20491;-83
2024/01/14 06:40:19;;;;;;;44.97;16.52;;;;;;;-3.27;73.85;99562.41;4966863;28;20515;-83
2024/01/14 06:42:45;;;;;;;30.80;14.63;;;;;;;-3.26;74.27;99566.69;4951322;28;20312;-83
2024/01/14 06:45:27;;;;;;;52.40;20.90;;;;;;;-3.42;74.39;99563.41;4964966;28;20228;-84
2024/01/14 06:47:53;;;;;;;35.85;14.23;;;;;;;-3.37;74.23;99566.78;4953019;28;20303;-83
2024/01/14 06:50:19;;;;;;;41.80;19.90;;;;;;;-3.35;74.49;99571.06;4954275;28;20299;-84
2024/01/14 06:52:45;;;;;;;39.53;14.85;;;;;;;-3.33;74.15;99571.88;4953538;28;20639;-83
2024/01/14 06:55:14;;;;;;;37.55;14.98;;;;;;;-3.29;74.24;99566.69;4953054;28;20596;-83
2024/01/14 06:57:40;;;;;;;40.83;16.10;;;;;;;-3.29;74.14;99571.84;4955407;28;20246;-83
2024/01/14 07:00:08;;;;;;;31.63;13.07;;;;;;;-3.27;74.35;99563.25;4954518;28;20219;-84
2024/01/14 07:02:34;;;;;;;43.47;19.05;;;;;;;-3.31;74.43;99569.31;4951904;28;20924;-84
2024/01/14 07:05:08;;;;;;;40.00;20.27;;;;;;;-3.36;74.46;99568.47;4953302;28;20339;-84
2024/01/14 07:07:33;;;;;;;33.78;11.90;;;;;;;-3.36;74.43;99561.63;4955918;28;20452;-82
2024/01/14 07:09:59;;;;;;;39.43;21.60;;;;;;;-3.36;74.63;99563.34;4957206;28;20383;-83
2024/01/14 07:12:25;;;;;;;29.52;14.70;;;;;;;-3.37;74.65;99554.78;4959402;28;20227;-83
2024/01/14 07:14:51;;;;;;;29.07;14.13;;;;;;;-3.39;74.47;99560.81;4953875;28;20220;-84
2024/01/14 07:17:46;;;;;;;36.77;14.70;;;;;;;-3.39;74.80;99556.50;4955691;28;20327;-83
2024/01/14 07:26:47;;;;;;;26.98;9.90;;;;;;;-3.23;74.33;99538.41;4912617;28;20244;-84
2024/01/14 07:29:12;;;;;;;14.57;6.40;;;;;;;-3.19;74.25;99537.50;4947991;28;20269;-83
2024/01/14 07:31:38;;;;;;;12.23;6.47;;;;;;;-3.17;73.90;99530.66;4953676;28;20736;-83
2024/01/14 07:34:06;;;;;;;13.43;4.97;;;;;;;-3.13;74.18;99529.75;4952969;28;20231;-83
2024/01/14 07:36:32;;;;;;;19.90;6.85;;;;;;;-3.12;73.60;99531.47;4947054;28;20264;-82
2024/01/14 07:38:58;;;;;;;34.20;16.40;;;;;;;-3.12;73.59;99524.59;4945433;28;20490;-83
2024/01/14 07:41:24;;;;;;;28.90;11.73;;;;;;;-3.13;73.93;99529.75;4948453;28;22153;-82
2024/01/14 07:43:52;;;;;;;29.20;12.40;;;;;;;-3.14;74.11;99520.34;4951528;28;20772;-83
2024/01/14 07:46:18;;;;;;;34.87;15.17;;;;;;;-3.14;74.06;99521.19;4951107;28;20224;-82
2024/01/14 07:48:43;;;;;;;43.47;15.00;;;;;;;-3.14;74.10;99515.19;4952790;28;20224;-82
2024/01/14 07:51:09;;;;;;;36.37;15.40;;;;;;;-3.12;74.03;99516.03;4953428;28;20558;-82
2024/01/14 07:53:36;;;;;;;45.75;17.85;;;;;;;-3.15;73.92;99519.50;4962323;28;20445;-83
2024/01/14 07:56:04;;;;;;;39.92;13.15;;;;;;;-3.14;74.09;99515.19;4959268;28;20220;-83
2024/01/14 07:58:41;;;;;;;28.17;14.87;;;;;;;-3.14;73.95;99512.63;4959543;28;20216;-83
2024/01/14 08:01:07;;;;;;;35.20;14.52;;;;;;;-3.14;73.68;99510.06;4965384;28;20479;-83
2024/01/14 08:03:33;;;;;;;38.30;14.57;;;;;;;-3.10;73.93;99513.47;4957143;28;20239;-83
2024/01/14 08:05:59;;;;;;;28.53;12.77;;;;;;;-3.06;73.69;99517.69;4957219;28;20656;-83
2024/01/14 08:08:24;;;;;;;38.92;18.85;;;;;;;-3.02;73.72;99506.53;4955136;28;20498;-83
2024/01/14 08:10:51;;;;;;;40.13;16.63;;;;;;;-3.02;73.71;99504.81;4958464;28;20747;-83
2024/01/14 08:13:17;;;;;;;39.78;14.00;;;;;;;-2.99;73.76;99504.78;4953068;28;20652;-83
2024/01/14 08:15:43;;;;;;;54.53;16.60;;;;;;;-2.95;73.63;99510.72;4953644;28;20212;-83
2024/01/14 08:18:08;;;;;;;36.77;16.43;;;;;;;-2.91;73.49;99500.41;4948483;28;20239;-83
2024/01/14 08:20:34;;;;;;;33.70;15.70;;;;;;;-2.86;73.47;99492.66;4944082;28;20519;-83
2024/01/14 08:22:59;;;;;;;25.00;12.00;;;;;;;-2.80;73.38;99489.16;4944195;28;20874;-83
2024/01/14 08:25:24;;;;;;;36.63;16.27;;;;;;;-2.75;73.39;99493.38;4947543;28;20319;-83
2024/01/14 08:27:52;;;;;;;28.73;13.90;;;;;;;-2.71;73.11;99486.47;4947796;28;20224;-83
2024/01/14 08:30:18;;;;;;;56.33;20.60;;;;;;;-2.69;72.90;99484.75;4944941;28;20248;-81
2024/01/14 08:32:43;;;;;;;36.00;16.77;;;;;;;-2.68;72.82;99489.00;4948419;28;20242;-83
2024/01/14 08:35:10;;;;;;;36.13;13.23;;;;;;;-2.65;72.94;99482.97;4948309;28;20507;-84
2024/01/14 08:37:36;;;;;;;30.13;16.17;;;;;;;-2.65;72.73;99478.69;4950391;28;20533;-84
2024/01/14 08:40:03;;;;;;;29.63;15.43;;;;;;;-2.63;72.87;99482.09;4949266;28;20251;-85
2024/01/14 08:42:31;;;;;;;44.08;19.88;;;;;;;-2.58;72.65;99484.63;4950589;28;20479;-84
2024/01/14 08:45:06;;;;;;;44.00;17.02;;;;;;;-2.57;72.71;99481.16;4953148;28;20344;-84
2024/01/14 08:47:35;;;;;;;40.60;15.80;;;;;;;-2.56;72.66;99480.31;4966847;28;20286;-83
2024/01/14 08:50:07;;;;;;;35.95;16.77;;;;;;;-2.57;72.13;99476.00;4967244;28;20315;-83
2024/01/14 08:52:33;;;;;;;44.72;15.77;;;;;;;-2.60;72.29;99466.63;4968161;28;20228;-83
2024/01/14 08:55:05;;;;;;;48.67;20.90;;;;;;;-2.58;72.44;99456.34;4968087;28;20212;-83
2024/01/14 08:57:38;;;;;;;26.58;13.93;;;;;;;-2.57;72.21;99455.44;4978931;28;20236;-83
2024/01/14 09:00:06;;;;;;;32.38;16.00;;;;;;;-2.58;72.30;99457.19;4969220;28;20224;-83
2024/01/14 09:02:32;;;;;;;49.10;17.45;;;;;;;-2.56;72.18;99458.00;4953913;28;20683;-83
2024/01/14 09:04:58;;;;;;;33.53;13.73;;;;;;;-2.58;71.95;99454.59;4954023;28;20862;-84
2024/01/14 09:07:24;;;;;;;28.33;12.37;;;;;;;-2.63;71.73;99451.22;4954364;28;20230;-82
2024/01/14 09:09:49;;;;;;;32.22;14.10;;;;;;;-2.68;72.48;99447.88;4970734;28;20745;-83
2024/01/14 09:12:15;;;;;;;38.70;17.37;;;;;;;-2.71;72.40;99448.75;4956503;28;20286;-83
2024/01/14 09:14:44;;;;;;;35.47;15.70;;;;;;;-2.68;72.25;99445.28;4956419;28;20461;-84
2024/01/14 09:17:11;;;;;;;30.20;11.05;;;;;;;-2.62;72.15;99446.94;4955684;28;20232;-85
2024/01/14 09:19:36;;;;;;;34.35;11.48;;;;;;;-2.59;71.48;99436.59;4956775;28;20224;-85
2024/01/14 09:22:02;;;;;;;31.43;15.30;;;;;;;-2.62;71.49;99442.66;4960909;28;20255;-85
2024/01/14 09:24:30;;;;;;;29.27;10.50;;;;;;;-2.68;71.40;99443.56;4971810;28;20755;-85
2024/01/14 09:26:56;;;;;;;28.33;13.23;;;;;;;-2.72;71.90;99452.22;4966476;28;20299;-84
2024/01/14 09:29:22;;;;;;;34.07;15.07;;;;;;;-2.71;71.62;99455.63;4962703;28;20220;-83
2024/01/14 09:31:47;;;;;;;41.43;13.53;;;;;;;-2.72;71.79;99452.22;4962053;28;20486;-83
2024/01/14 09:34:13;;;;;;;27.57;17.07;;;;;;;-2.66;71.65;99448.72;4962206;28;20495;-84
2024/01/14 09:36:41;;;;;;;39.60;17.93;;;;;;;-2.60;71.62;99446.06;4962481;28;20279;-84
2024/01/14 09:39:10;;;;;;;50.58;24.48;;;;;;;-2.52;71.68;99445.97;4962600;28;20502;-84
2024/01/14 09:41:47;;;;;;;34.45;15.18;;;;;;;-2.47;71.50;99449.31;4966436;28;20212;-84
2024/01/14 09:44:16;;;;;;;30.27;11.93;;;;;;;-2.48;71.13;99445.06;4966137;28;20216;-84
2024/01/14 09:46:42;;;;;;;40.90;16.23;;;;;;;-2.51;70.79;99440.81;4961114;28;20468;-83
2024/01/14 09:49:10;;;;;;;23.38;15.30;;;;;;;-2.52;71.12;99433.94;4962340;28;20322;-84
2024/01/14 09:51:37;;;;;;;33.55;13.55;;;;;;;-2.50;71.25;99432.22;4967283;28;20220;-84
2024/01/14 09:54:02;;;;;;;24.70;10.93;;;;;;;-2.46;70.92;99433.88;4964862;28;20246;-84
2024/01/14 09:56:31;;;;;;;22.67;14.20;;;;;;;-2.49;71.06;99439.03;4962590;28;20208;-84
2024/01/14 09:58:57;;;;;;;34.85;17.30;;;;;;;-2.50;70.92;99433.94;4961677;28;20223;-84
2024/01/14 10:01:30;;;;;;;38.25;18.27;;;;;;;-2.47;70.69;99428.75;4969742;28;20889;-82
2024/01/14 10:03:58;;;;;;;33.33;13.32;;;;;;;-2.44;70.38;99428.69;4960500;28;20228;-83
2024/01/14 10:06:24;;;;;;;31.83;12.60;;;;;;;-2.42;70.63;99420.97;4961115;28;20208;-83
2024/01/14 10:08:52;;;;;;;47.95;19.83;;;;;;;-2.35;70.72;99417.44;4961221;28;20494;-83
2024/01/14 10:11:18;;;;;;;36.17;16.30;;;;;;;-2.31;70.71;99416.53;4960865;28;20216;-84
2024/01/14 10:13:43;;;;;;;40.47;16.97;;;;;;;-2.25;70.88;99411.28;4963535;28;20239;-83
2024/01/14 10:16:12;;;;;;;34.83;16.37;;;;;;;-2.19;70.75;99405.19;4961517;28;20224;-83
2024/01/14 10:18:37;;;;;;;42.58;14.68;;;;;;;-2.17;70.46;99396.56;4956908;28;20223;-83
2024/01/14 10:21:03;;;;;;;40.80;14.80;;;;;;;-2.16;70.17;99395.72;4956367;28;20220;-83
2024/01/14 10:23:28;;;;;;;29.73;12.80;;;;;;;-2.17;69.87;99382.88;4960285;28;20247;-83
2024/01/14 10:25:54;;;;;;;31.47;12.73;;;;;;;-2.17;70.00;99394.00;4957073;28;20470;-82
2024/01/14 10:28:20;;;;;;;33.73;16.33;;;;;;;-2.13;70.17;99374.22;4955690;28;20894;-83
2024/01/14 10:30:46;;;;;;;43.90;17.87;;;;;;;-2.10;70.00;99375.03;4956371;28;20618;-84
2024/01/14 10:33:12;;;;;;;42.13;18.45;;;;;;;-2.07;69.56;99364.69;4955263;28;20236;-84
2024/01/14 10:35:38;;;;;;;25.70;12.03;;;;;;;-2.05;69.71;99357.78;4955942;28;20216;-84
2024/01/14 10:38:04;;;;;;;38.77;19.00;;;;;;;-2.04;69.45;99358.63;4956484;28;20499;-84
2024/01/14 10:40:30;;;;;;;36.57;16.33;;;;;;;-2.03;69.54;99356.03;4955456;28;20479;-83
2024/01/14 10:42:55;;;;;;;28.70;12.90;;;;;;;-2.02;69.53;99347.44;4955565;28;20487;-82
2024/01/14 10:45:21;;;;;;;31.90;14.90;;;;;;;-1.99;69.10;99341.41;4958013;28;20561;-84
2024/01/14 10:47:47;;;;;;;39.40;15.13;;;;;;;-1.96;69.52;99341.34;4961753;28;20212;-83
2024/01/14 10:50:17;;;;;;;22.70;11.52;;;;;;;-1.91;69.38;99343.84;4960216;28;20246;-84
2024/01/14 10:52:48;;;;;;;32.45;12.55;;;;;;;-1.89;69.31;99336.94;4962602;28;20224;-84
2024/01/14 10:55:40;;;;;;;23.67;10.00;;;;;;;-1.91;68.91;99328.41;4961068;28;20537;-83
2024/01/14 10:58:06;;;;;;;21.60;13.73;;;;;;;-1.92;68.86;99326.69;4961279;28;20220;-79
2024/01/14 11:00:38;;;;;;;31.38;11.80;;;;;;;-1.92;68.79;99313.81;4965764;28;20204;-85
2024/01/14 11:03:05;;;;;;;28.27;13.30;;;;;;;-1.93;68.60;99318.13;4963560;28;20557;-85
2024/01/14 11:05:32;;;;;;;21.70;11.88;;;;;;;-1.92;69.00;99312.09;4969420;28;20204;-84
2024/01/14 11:08:01;;;;;;;36.65;14.90;;;;;;;-1.87;68.70;99301.72;4965453;28;20731;-84
2024/01/14 11:10:28;;;;;;;35.70;17.85;;;;;;;-1.81;68.87;99304.16;4962869;28;20216;-85
2024/01/14 11:13:15;;;;;;;31.63;10.98;;;;;;;-1.83;68.21;99295.66;4968345;28;20251;-85
2024/01/14 11:15:51;;;;;;;24.25;13.05;;;;;;;-1.84;68.30;99289.63;4968542;28;20223;-85
2024/01/14 11:18:44;;;;;;;31.77;12.15;;;;;;;-1.87;68.52;99279.38;4983634;28;20211;-87
2024/01/14 11:22:02;;;;;;;37.22;14.82;;;;;;;-1.87;68.55;99274.25;4979283;28;20216;-84
2024/01/14 11:24:28;;;;;;;24.42;10.90;;;;;;;-1.89;68.55;99268.28;4969952;23;20734;-76